Date,TemperatureHighF,TemperatureAvgF,TemperatureLowF,DewpointHighF,DewpointAvgF,DewpointLowF,HumidityHigh,HumidityAvg,HumidityLow,PressureMaxIn,PressureMinIn,WindSpeedMaxMPH,WindSpeedAvgMPH,GustSpeedMaxMPH,PrecipitationSumIn
2013-1-1,57,49,40,-100,-100,-100,0,0,100,0.00,40.00,0,-999,0,0.00
2013-1-2,42,39,35,-100,-100,-100,0,0,100,0.00,40.00,0,-999,0,0.00
2013-1-3,44,39,36,-100,-100,-100,0,0,100,0.00,40.00,0,-999,0,0.00
2013-1-4,42,38,36,-100,-100,-100,0,0,100,0.00,40.00,0,-999,0,0.00
2013-1-5,51,43,35,-100,-100,-100,0,0,100,0.00,40.00,0,-999,0,0.00
2013-1-6,58,42,33,-100,-100,-100,0,0,100,0.00,40.00,0,-999,0,0.00
2013-1-7,54,44,33,-100,-100,-100,0,0,100,0.00,40.00,0,-999,0,0.00
2013-1-8,52,49,45,-100,-100,-100,0,0,100,0.00,40.00,0,-999,0,0.00
2013-1-9,63,55,48,-100,-100,-100,0,0,100,0.00,40.00,0,-999,0,0.00
2013-1-10,65,53,44,-100,-100,-100,0,0,100,0.00,40.00,0,-999,0,0.00
2013-1-11,68,56,42,-100,-100,-100,0,0,100,0.00,40.00,0,-999,0,0.00
2013-1-12,73,66,53,-100,-100,-100,0,0,100,0.00,40.00,0,-999,0,0.00
2013-1-13,51,44,38,-100,-100,-100,0,0,100,0.00,40.00,0,-999,0,0.00
2013-1-14,49,39,33,-100,-100,-100,0,0,100,0.00,40.00,0,-999,0,0.00
2013-1-15,40,36,34,-100,-100,-100,0,0,100,0.00,40.00,0,-999,0,0.00
2013-1-16,54,39,26,-100,-100,-100,0,0,100,0.00,40.00,0,-999,0,0.00
2013-1-17,64,42,31,-100,-100,-100,0,0,100,0.00,40.00,0,-999,0,0.00
2013-1-18,63,50,36,-100,-100,-100,0,0,100,0.00,40.00,0,-999,0,0.00
2013-1-19,67,49,35,-100,-100,-100,0,0,100,0.00,40.00,0,-999,0,0.00
2013-1-20,71,58,40,-100,-100,-100,0,0,100,0.00,40.00,0,-999,0,0.00
2013-1-21,72,57,41,-100,-100,-100,0,0,100,0.00,40.00,0,-999,0,0.00
2013-1-22,72,56,44,-100,-100,-100,0,0,100,0.00,40.00,0,-999,0,0.00
2013-1-23,75,56,43,-100,-100,-100,0,0,100,0.00,40.00,0,-999,0,0.00
2013-1-24,77,64,57,-100,-100,-100,0,0,100,0.00,40.00,0,-999,0,0.00
2013-1-25,79,67,59,-100,-100,-100,0,0,100,0.00,40.00,0,-999,0,0.00
2013-1-26,69,59,53,-100,-100,-100,0,0,100,0.00,40.00,0,-999,0,0.00
2013-1-27,76,66,58,-100,-100,-100,0,0,100,0.00,40.00,0,-999,0,0.00
2013-1-28,73,70,68,-100,-100,-100,0,0,100,0.00,40.00,0,-999,0,0.00
2013-1-29,83,71,60,-100,-100,-100,0,0,100,0.00,40.00,0,-999,0,0.00
2013-1-30,58,52,36,-100,-100,-100,0,0,100,0.00,40.00,0,-999,0,0.00
2013-1-31,65,55,41,-100,-100,-100,0,0,100,0.00,40.00,0,-999,0,0.00
2013-2-1,71,56,43,-100,-100,-100,0,0,100,0.00,40.00,0,-999,0,0.00
2013-2-2,75,60,40,-100,-100,-100,0,0,100,0.00,40.00,0,-999,0,0.00
2013-2-3,70,60,50,-100,-100,-100,0,0,100,0.00,40.00,0,-999,0,0.00
2013-2-4,73,62,56,-100,-100,-100,0,0,100,0.00,40.00,0,-999,0,0.00
2013-2-5,80,66,47,-100,-100,-100,0,0,100,0.00,40.00,0,-999,0,0.00
2013-2-6,74,64,60,-100,-100,-100,0,0,100,0.00,40.00,0,-999,0,0.00
2013-2-7,78,66,58,-100,-100,-100,0,0,100,0.00,40.00,0,-999,0,0.00
2013-2-8,69,60,47,-100,-100,-100,0,0,100,0.00,40.00,0,-999,0,0.00
2013-2-9,66,57,51,-100,-100,-100,0,0,100,0.00,40.00,0,-999,0,0.00
2013-2-10,68,63,56,-100,-100,-100,0,0,100,0.00,40.00,0,-999,0,0.00
2013-2-11,58,54,51,-100,-100,-100,0,0,100,0.00,40.00,0,-999,0,0.00
2013-2-12,70,56,50,-100,-100,-100,0,0,100,0.00,40.00,0,-999,0,0.00
2013-2-13,63,49,36,-100,-100,-100,0,0,100,0.00,40.00,0,-999,0,0.00
2013-2-14,69,52,32,-100,-100,-100,0,0,100,0.00,40.00,0,-999,0,0.00
2013-2-15,65,51,40,-100,-100,-100,0,0,100,0.00,40.00,0,-999,0,0.00
2013-2-16,65,48,33,-100,-100,-100,0,0,100,0.00,40.00,0,-999,0,0.00
2013-2-17,70,58,37,-100,-100,-100,0,0,100,0.00,40.00,0,-999,0,0.00
2013-2-18,80,66,58,-100,-100,-100,0,0,100,0.00,40.00,0,-999,0,0.00
2013-2-19,66,57,42,-100,-100,-100,0,0,100,0.00,40.00,0,-999,0,0.00
2013-2-20,66,58,52,-100,-100,-100,0,0,100,0.00,40.00,0,-999,0,0.00
2013-2-21,77,68,56,-100,-100,-100,0,0,100,0.00,40.00,0,-999,0,0.00
2013-2-22,62,52,46,-100,-100,-100,0,0,100,0.00,40.00,0,-999,0,0.00
2013-2-23,75,54,40,-100,-100,-100,0,0,100,0.00,40.00,0,-999,0,0.00
2013-2-24,68,54,37,-100,-100,-100,0,0,100,0.00,40.00,0,-999,0,0.00
2013-2-25,62,55,47,-100,-100,-100,0,0,100,0.00,40.00,0,-999,0,0.00
2013-2-26,66,53,39,-100,-100,-100,0,0,100,0.00,40.00,0,-999,0,0.00
2013-2-27,63,50,40,-100,-100,-100,0,0,100,0.00,40.00,0,-999,0,0.00
2013-2-28,61,48,38,-100,-100,-100,0,0,100,0.00,40.00,0,-999,0,0.00
2013-3-1,68,49,32,-100,-100,-100,0,0,100,0.00,40.00,0,-999,0,0.00
2013-3-2,64,50,37,-100,-100,-100,0,0,100,0.00,40.00,0,-999,0,0.00
2013-3-3,75,57,30,-100,-100,-100,0,0,100,0.00,40.00,0,-999,0,0.00
2013-3-4,86,69,47,-100,-100,-100,0,0,100,0.00,40.00,0,-999,0,0.00
2013-3-5,65,56,44,-100,-100,-100,0,0,100,0.00,40.00,0,-999,0,0.00
2013-3-6,64,51,40,-100,-100,-100,0,0,100,0.00,40.00,0,-999,0,0.00
2013-3-7,72,54,38,-100,-100,-100,0,0,100,0.00,40.00,0,-999,0,0.00
2013-3-8,65,61,58,-100,-100,-100,0,0,100,0.00,40.00,0,-999,0,0.00
2013-3-9,72,65,62,-100,-100,-100,0,0,100,0.00,40.00,0,-999,0,0.00
2013-3-10,65,58,51,-100,-100,-100,0,0,100,0.00,40.00,0,-999,0,0.00
2013-3-11,69,52,37,-100,-100,-100,0,0,100,0.00,40.00,0,-999,0,0.00
2013-3-12,77,55,32,-100,-100,-100,0,0,100,0.00,40.00,0,-999,0,0.00
2013-3-13,75,57,43,-100,-100,-100,0,0,100,0.00,40.00,0,-999,0,0.00
2013-3-14,77,59,47,-100,-100,-100,0,0,100,0.00,40.00,0,-999,0,0.00
2013-3-15,80,65,50,-100,-100,-100,0,0,100,0.00,40.00,0,-999,0,0.00
2013-3-16,83,72,54,-100,-100,-100,0,0,100,0.00,40.00,0,-999,0,0.00
2013-3-17,84,72,65,-100,-100,-100,0,0,100,0.00,40.00,0,-999,0,0.00
2013-3-18,91,71,64,-100,-100,-100,0,0,100,0.00,40.00,0,-999,0,0.00
2013-3-19,78,65,52,-100,-100,-100,0,0,100,0.00,40.00,0,-999,0,0.00
2013-3-20,71,61,54,-100,-100,-100,0,0,100,0.00,40.00,0,-999,0,0.00
2013-3-21,76,62,51,-100,-100,-100,0,0,100,0.00,40.00,0,-999,0,0.00
2013-3-22,85,71,60,-100,-100,-100,0,0,100,0.00,40.00,0,-999,0,0.00
2013-3-23,78,62,53,-100,-100,-100,0,0,100,0.00,40.00,0,-999,0,0.00
2013-3-24,63,53,43,-100,-100,-100,0,0,100,0.00,40.00,0,-999,0,0.00
2013-3-25,58,48,38,-100,-100,-100,0,0,100,0.00,40.00,0,-999,0,0.00
2013-3-26,64,48,36,-100,-100,-100,0,0,100,0.00,40.00,0,-999,0,0.00
2013-3-27,65,55,33,-100,-100,-100,0,0,100,0.00,40.00,0,-999,0,0.00
2013-3-28,70,62,56,-100,-100,-100,0,0,100,0.00,40.00,0,-999,0,0.00
2013-3-29,76,67,58,-100,-100,-100,0,0,100,0.00,40.00,0,-999,0,0.00
2013-3-30,82,71,65,-100,-100,-100,0,0,100,0.00,40.00,0,-999,0,0.00
2013-3-31,83,70,63,-100,-100,-100,0,0,100,0.00,40.00,0,-999,0,0.00
2013-4-1,85,70,60,-100,-100,-100,0,0,100,0.00,40.00,0,-999,0,0.00
2013-4-2,75,69,63,-100,-100,-100,0,0,100,0.00,40.00,0,-999,0,0.00
2013-4-3,63,52,49,-100,-100,-100,0,0,100,0.00,40.00,0,-999,0,0.00
2013-4-4,64,54,47,-100,-100,-100,0,0,100,0.00,40.00,0,-999,0,0.00
2013-4-5,73,56,39,-100,-100,-100,0,0,100,0.00,40.00,0,-999,0,0.00
2013-4-6,81,64,51,-100,-100,-100,0,0,100,0.00,40.00,0,-999,0,0.00
2013-4-7,83,68,61,-100,-100,-100,0,0,100,0.00,40.00,0,-999,0,0.00
2013-4-8,75,70,66,-100,-100,-100,0,0,100,0.00,40.00,0,-999,0,0.00
2013-4-9,85,73,69,-100,-100,-100,0,0,100,0.00,40.00,0,-999,0,0.00
2013-4-10,74,56,43,-100,-100,-100,0,0,100,0.00,40.00,0,-999,0,0.00
2013-4-11,69,53,43,-100,-100,-100,0,0,100,0.00,40.00,0,-999,0,0.00
2013-4-12,81,64,42,-100,-100,-100,0,0,100,0.00,40.00,0,-999,0,0.00
2013-4-13,76,64,48,-100,-100,-100,0,0,100,0.00,40.00,0,-999,0,0.00
2013-4-14,87,71,56,-100,-100,-100,0,0,100,0.00,40.00,0,-999,0,0.00
2013-4-15,88,76,69,-100,-100,-100,0,0,100,0.00,40.00,0,-999,0,0.00
2013-4-16,84,76,65,-100,-100,-100,0,0,100,0.00,40.00,0,-999,0,0.00
2013-4-17,79,75,73,-100,-100,-100,0,0,100,0.00,40.00,0,-999,0,0.00
2013-4-18,75,67,49,-100,-100,-100,0,0,100,0.00,40.00,0,-999,0,0.00
2013-4-19,69,56,38,-100,-100,-100,0,0,100,0.00,40.00,0,-999,0,0.00
2013-4-20,73,55,36,-100,-100,-100,0,0,100,0.00,40.00,0,-999,0,0.00
2013-4-21,81,67,52,-100,-100,-100,0,0,100,0.00,40.00,0,-999,0,0.00
2013-4-22,84,68,58,-100,-100,-100,0,0,100,0.00,40.00,0,-999,0,0.00
2013-4-23,77,68,55,-100,-100,-100,0,0,100,0.00,40.00,0,-999,0,0.00
2013-4-24,61,54,44,-100,-100,-100,0,0,100,0.00,40.00,0,-999,0,0.00
2013-4-25,67,62,54,-100,-100,-100,0,0,100,0.00,40.00,0,-999,0,0.00
2013-4-26,77,70,61,-100,-100,-100,0,0,100,0.00,40.00,0,-999,0,0.00
2013-4-27,81,74,69,-100,-100,-100,0,0,100,0.00,40.00,0,-999,0,0.00
2013-4-28,82,71,59,-100,-100,-100,0,0,100,0.00,40.00,0,-999,0,0.00
2013-4-29,82,72,65,-100,-100,-100,0,0,100,0.00,40.00,0,-999,0,0.00
2013-4-30,84,73,64,-100,-100,-100,0,0,100,0.00,40.00,0,-999,0,0.00
2013-5-1,87,75,67,-100,-100,-100,0,0,100,0.00,40.00,0,-999,0,0.00
2013-5-2,76,57,48,-100,-100,-100,0,0,100,0.00,40.00,0,-999,0,0.00
2013-5-3,69,55,45,-100,-100,-100,0,0,100,0.00,40.00,0,-999,0,0.00
2013-5-4,82,67,40,-100,-100,-100,0,0,100,0.00,40.00,0,-999,0,0.00
2013-5-5,80,66,51,-100,-100,-100,0,0,100,0.00,40.00,0,-999,0,0.00
2013-5-6,78,62,47,-100,-100,-100,0,0,100,0.00,40.00,0,-999,0,0.00
2013-5-7,85,65,48,-100,-100,-100,0,0,100,0.00,40.00,0,-999,0,0.00
2013-5-8,83,71,63,-100,-100,-100,0,0,100,0.00,40.00,0,-999,0,0.00
2013-5-9,76,72,70,-100,-100,-100,0,0,100,0.00,40.00,0,-999,0,0.00
2013-5-10,82,70,60,-100,-100,-100,0,0,100,0.00,40.00,0,-999,0,0.00
2013-5-11,80,70,62,-100,-100,-100,0,0,100,0.00,40.00,0,-999,0,0.00
2013-5-12,79,70,61,-100,-100,-100,0,0,100,0.00,40.00,0,-999,0,0.00
2013-5-13,84,67,51,-100,-100,-100,0,0,100,0.00,40.00,0,-999,0,0.00
2013-5-14,83,70,59,-100,-100,-100,0,0,100,0.00,40.00,0,-999,0,0.00
2013-5-15,82,74,70,-100,-100,-100,0,0,100,0.00,40.00,0,-999,0,0.00
2013-5-16,93,79,71,-100,-100,-100,0,0,100,0.00,40.00,0,-999,0,0.00
2013-5-17,94,80,73,-100,-100,-100,0,0,100,0.00,40.00,0,-999,0,0.00
2013-5-18,92,78,70,-100,-100,-100,0,0,100,0.00,40.00,0,-999,0,0.00
2013-5-19,90,82,73,-100,-100,-100,0,0,100,0.00,40.00,0,-999,0,0.00
2013-5-20,92,80,71,-100,-100,-100,0,0,100,0.00,40.00,0,-999,0,0.00
2013-5-21,89,82,75,-100,-100,-100,0,0,100,0.00,40.00,0,-999,0,0.00
2013-5-22,88,74,61,-100,-100,-100,0,0,100,0.00,40.00,0,-999,0,0.00
2013-5-23,91,80,74,-100,-100,-100,0,0,100,0.00,40.00,0,-999,0,0.00
2013-5-24,78,73,68,-100,-100,-100,0,0,100,0.00,40.00,0,-999,0,0.00
2013-5-25,78,72,69,-100,-100,-100,0,0,100,0.00,40.00,0,-999,0,0.00
2013-5-26,81,76,72,-100,-100,-100,0,0,100,0.00,40.00,0,-999,0,0.00
2013-5-27,86,78,72,-100,-100,-100,0,0,100,0.00,40.00,0,-999,0,0.00
2013-5-28,86,78,73,-100,-100,-100,0,0,100,0.00,40.00,0,-999,0,0.00
2013-5-29,83,76,73,-100,-100,-100,0,0,100,0.00,40.00,0,-999,0,0.00
2013-5-30,87,81,75,-100,-100,-100,0,0,100,0.00,40.00,0,-999,0,0.00
2013-5-31,91,80,75,-100,-100,-100,0,0,100,0.00,40.00,0,-999,0,0.00
2013-6-1,93,83,76,-100,-100,-100,0,0,100,0.00,40.00,0,-999,0,0.00
2013-6-2,87,74,64,-100,-100,-100,0,0,100,0.00,40.00,0,-999,0,0.00
2013-6-3,92,72,62,-100,-100,-100,0,0,100,0.00,40.00,0,-999,0,0.00
2013-6-4,92,81,69,-100,-100,-100,0,0,100,0.00,40.00,0,-999,0,0.00
2013-6-5,93,83,69,-100,-100,-100,0,0,100,0.00,40.00,0,-999,0,0.00
2013-6-6,93,80,68,-100,-100,-100,0,0,100,0.00,40.00,0,-999,0,0.00
2013-6-7,81,73,68,-100,-100,-100,0,0,100,0.00,40.00,0,-999,0,0.00
2013-6-8,86,74,62,-100,-100,-100,0,0,100,0.00,40.00,0,-999,0,0.00
2013-6-9,90,81,75,-100,-100,-100,0,0,100,0.00,40.00,0,-999,0,0.00
2013-6-10,94,83,71,-100,-100,-100,0,0,100,0.00,40.00,0,-999,0,0.00
2013-6-11,91,80,73,-100,-100,-100,0,0,100,0.00,40.00,0,-999,0,0.00
2013-6-12,91,78,71,-100,-100,-100,0,0,100,0.00,40.00,0,-999,0,0.00
2013-6-13,91,78,71,-100,-100,-100,0,0,100,0.00,40.00,0,-999,0,0.00
2013-6-14,86,78,73,-100,-100,-100,0,0,100,0.00,40.00,0,-999,0,0.00
2013-6-15,87,81,77,-100,-100,-100,0,0,100,0.00,40.00,0,-999,0,0.00
2013-6-16,94,83,75,-100,-100,-100,0,0,100,0.00,40.00,0,-999,0,0.00
2013-6-17,94,82,76,-100,-100,-100,0,0,100,0.00,40.00,0,-999,0,0.00
2013-6-18,93,83,74,-100,-100,-100,0,0,100,0.00,40.00,0,-999,0,0.00
2013-6-19,95,87,75,-100,-100,-100,0,0,100,0.00,40.00,0,-999,0,0.00
2013-6-20,91,80,74,-100,-100,-100,0,0,100,0.00,40.00,0,-999,0,0.00
2013-6-22,94,88,81,-100,-100,-100,0,0,100,0.00,40.00,0,-999,0,0.00
2013-6-23,91,81,76,-100,-100,-100,0,0,100,0.00,40.00,0,-999,0,0.00
2013-6-24,94,85,76,-100,-100,-100,0,0,100,0.00,40.00,0,-999,0,0.00
2013-6-25,94,82,77,-100,-100,-100,0,0,100,0.00,40.00,0,-999,0,0.00
2013-6-26,98,86,76,-100,-100,-100,0,0,100,0.00,40.00,0,-999,0,0.00
2013-6-27,99,86,76,-100,-100,-100,0,0,100,0.00,40.00,0,-999,0,0.00
2013-6-28,102,86,74,-100,-100,-100,0,0,100,0.00,40.00,0,-999,0,0.00
2013-6-29,106,88,76,-100,-100,-100,0,0,100,0.00,40.00,0,-999,0,0.00
2013-6-30,86,78,69,-100,-100,-100,0,0,100,0.00,40.00,0,-999,0,0.00
2013-7-1,88,80,73,-100,-100,-100,0,0,100,0.00,40.00,0,-999,0,0.00
2013-7-2,93,80,67,-100,-100,-100,0,0,100,0.00,40.00,0,-999,0,0.00
2013-7-3,95,82,68,-100,-100,-100,0,0,100,0.00,40.00,0,-999,0,0.00
2013-7-4,94,81,65,-100,-100,-100,0,0,100,0.00,40.00,0,-999,0,0.00
2013-7-5,96,86,69,-100,-100,-100,0,0,100,0.00,40.00,0,-999,0,0.00
2013-7-6,97,80,69,-100,-100,-100,0,0,100,0.00,40.00,0,-999,0,0.00
2013-7-7,94,83,73,-100,-100,-100,0,0,100,0.00,40.00,0,-999,0,0.00
2013-7-8,90,80,76,-100,-100,-100,0,0,100,0.00,40.00,0,-999,0,0.00
2013-7-9,98,86,76,-100,-100,-100,0,0,100,0.00,40.00,0,-999,0,0.00
2013-7-10,94,85,75,-100,-100,-100,0,0,100,0.00,40.00,0,-999,0,0.00
2013-7-11,95,83,74,-100,-100,-100,0,0,100,0.00,40.00,0,-999,0,0.00
2013-7-12,99,86,73,-100,-100,-100,0,0,100,0.00,40.00,0,-999,0,0.00
2013-7-13,101,89,72,-100,-100,-100,0,0,100,0.00,40.00,0,-999,0,0.00
2013-7-14,98,81,74,-100,-100,-100,0,0,100,0.00,40.00,0,-999,0,0.00
2013-7-15,81,74,67,-100,-100,-100,0,0,100,0.00,40.00,0,-999,0,0.00
2013-7-16,82,75,71,-100,-100,-100,0,0,100,0.00,40.00,0,-999,0,0.00
2013-7-17,82,73,69,-100,-100,-100,0,0,100,0.00,40.00,0,-999,0,0.00
2013-7-18,91,77,69,-100,-100,-100,0,0,100,0.00,40.00,0,-999,0,0.00
2013-7-19,91,78,69,-100,-100,-100,0,0,100,0.00,40.00,0,-999,0,0.00
2013-7-20,94,81,73,-100,-100,-100,0,0,100,0.00,40.00,0,-999,0,0.00
2013-7-21,91,82,74,-100,-100,-100,0,0,100,0.00,40.00,0,-999,0,0.00
2013-7-22,94,83,76,-100,-100,-100,0,0,100,0.00,40.00,0,-999,0,0.00
2013-7-23,94,84,76,-100,-100,-100,0,0,100,0.00,40.00,0,-999,0,0.00
2013-7-24,94,86,75,-100,-100,-100,0,0,100,0.00,40.00,0,-999,0,0.00
2013-7-25,95,85,74,-100,-100,-100,0,0,100,0.00,40.00,0,-999,0,0.00
2013-7-26,98,84,76,-100,-100,-100,0,0,100,0.00,40.00,0,-999,0,0.00
2013-7-27,87,80,74,-100,-100,-100,0,0,100,0.00,40.00,0,-999,0,0.00
2013-7-28,95,84,75,-100,-100,-100,0,0,100,0.00,40.00,0,-999,0,0.00
2013-7-29,97,84,77,-100,-100,-100,0,0,100,0.00,40.00,0,-999,0,0.00
2013-7-30,98,83,77,-100,-100,-100,0,0,100,0.00,40.00,0,-999,0,0.00
2013-7-31,100,84,74,-100,-100,-100,0,0,100,0.00,40.00,0,-999,0,0.00
2013-8-1,102,87,74,-100,-100,-100,0,0,100,0.00,40.00,0,-999,0,0.00
2013-8-2,98,85,73,-100,-100,-100,0,0,100,0.00,40.00,0,-999,0,0.00
2013-8-3,99,88,76,-100,-100,-100,0,0,100,0.00,40.00,0,-999,0,0.00
2013-8-4,99,88,76,-100,-100,-100,0,0,100,0.00,40.00,0,-999,0,0.00
2013-8-5,100,86,73,-100,-100,-100,0,0,100,0.00,40.00,0,-999,0,0.00
2013-8-6,102,90,77,-100,-100,-100,0,0,100,0.00,40.00,0,-999,0,0.00
2013-8-7,102,89,76,-100,-100,-100,0,0,100,0.00,40.00,0,-999,0,0.00
2013-8-8,102,85,77,-100,-100,-100,0,0,100,0.00,40.00,0,-999,0,0.00
2013-8-9,102,86,74,-100,-100,-100,0,0,100,0.00,40.00,0,-999,0,0.00
2013-8-10,100,87,74,-100,-100,-100,0,0,100,0.00,40.00,0,-999,0,0.00
2013-8-11,98,84,75,-100,-100,-100,0,0,100,0.00,40.00,0,-999,0,0.00
2013-8-12,94,83,73,-100,-100,-100,0,0,100,0.00,40.00,0,-999,0,0.00
2013-8-13,100,88,76,-100,-100,-100,0,0,100,0.00,40.00,0,-999,0,0.00
2013-8-14,101,83,75,-100,-100,-100,0,0,100,0.00,40.00,0,-999,0,0.00
2013-8-15,98,82,73,-100,-100,-100,0,0,100,0.00,40.00,0,-999,0,0.00
2013-8-16,94,81,71,-100,-100,-100,0,0,100,0.00,40.00,0,-999,0,0.00
2013-8-17,94,83,69,-100,-100,-100,0,0,100,0.00,40.00,0,-999,0,0.00
2013-8-18,94,79,68,-100,-100,-100,0,0,100,0.00,40.00,0,-999,0,0.00
2013-8-19,95,82,66,-100,-100,-100,0,0,100,0.00,40.00,0,-999,0,0.00
2013-8-20,93,84,68,-100,-100,-100,0,0,100,0.00,40.00,0,-999,0,0.00
2013-8-21,92,83,73,-100,-100,-100,0,0,100,0.00,40.00,0,-999,0,0.00
2013-8-22,96,82,70,-100,-100,-100,0,0,100,0.00,40.00,0,-999,0,0.00
2013-8-23,98,86,73,-100,-100,-100,0,0,100,0.00,40.00,0,-999,0,0.00
2013-8-24,98,87,75,-100,-100,-100,0,0,100,0.00,40.00,0,-999,0,0.00
2013-8-25,94,83,73,-100,-100,-100,0,0,100,0.00,40.00,0,-999,0,0.00
2013-8-26,87,77,72,-100,-100,-100,0,0,100,0.00,40.00,0,-999,0,0.00
2013-8-27,84,76,72,-100,-100,-100,0,0,100,0.00,40.00,0,-999,0,0.00
2013-8-28,94,91,86,-100,-100,-100,0,0,100,0.00,40.00,0,-999,0,0.00
2013-8-29,98,84,73,-100,-100,-100,0,0,100,0.00,40.00,0,-999,0,0.00
2013-8-30,102,86,73,-100,-100,-100,0,0,100,0.00,40.00,0,-999,0,0.00
2013-8-31,99,84,73,-100,-100,-100,0,0,100,0.00,40.00,0,-999,0,0.00
2013-9-1,98,86,73,-100,-100,-100,0,0,100,0.00,40.00,0,-999,0,0.00
2013-9-2,97,84,73,-100,-100,-100,0,0,100,0.00,40.00,0,-999,0,0.00
2013-9-3,100,88,69,-100,-100,-100,0,0,100,0.00,40.00,0,-999,0,0.00
2013-9-4,98,84,73,-100,-100,-100,0,0,100,0.00,40.00,0,-999,0,0.00
2013-9-5,95,81,69,-100,-100,-100,0,0,100,0.00,40.00,0,-999,0,0.00
2013-9-6,94,83,71,-100,-100,-100,0,0,100,0.00,40.00,0,-999,0,0.00
2013-9-7,96,81,71,-100,-100,-100,0,0,100,0.00,40.00,0,-999,0,0.00
2013-9-8,83,75,70,-100,-100,-100,0,0,100,0.00,40.00,0,-999,0,0.00
2013-9-9,91,78,69,-100,-100,-100,0,0,100,0.00,40.00,0,-999,0,0.00
2013-9-10,87,76,71,-100,-100,-100,0,0,100,0.00,40.00,0,-999,0,0.00
2013-9-11,91,79,72,-100,-100,-100,0,0,100,0.00,40.00,0,-999,0,0.00
2013-9-12,95,80,70,-100,-100,-100,0,0,100,0.00,40.00,0,-999,0,0.00
2013-9-13,97,82,70,-100,-100,-100,0,0,100,0.00,40.00,0,-999,0,0.00
2013-9-14,93,80,67,-100,-100,-100,0,0,100,0.00,40.00,0,-999,0,0.00
2013-9-15,92,81,71,-100,-100,-100,0,0,100,0.00,40.00,0,-999,0,0.00
2013-9-16,88,77,73,-100,-100,-100,0,0,100,0.00,40.00,0,-999,0,0.00
2013-9-17,87,80,72,-100,-100,-100,0,0,100,0.00,40.00,0,-999,0,0.00
2013-9-18,79,75,73,-100,-100,-100,0,0,100,0.00,40.00,0,-999,0,0.00
2013-9-19,92,78,74,-100,-100,-100,0,0,100,0.00,40.00,0,-999,0,0.00
2013-9-20,78,75,69,-100,-100,-100,0,0,100,0.00,40.00,0,-999,0,0.00
2013-9-21,83,73,67,-100,-100,-100,0,0,100,0.00,40.00,0,-999,0,0.00
2013-9-22,83,69,62,-100,-100,-100,0,0,100,0.00,40.00,0,-999,0,0.00
2013-9-23,91,72,56,-100,-100,-100,0,0,100,0.00,40.00,0,-999,0,0.00
2013-9-24,94,78,63,-100,-100,-100,0,0,100,0.00,40.00,0,-999,0,0.00
2013-9-25,94,80,65,-100,-100,-100,0,0,100,0.00,40.00,0,-999,0,0.00
2013-9-26,90,79,69,-100,-100,-100,0,0,100,0.00,40.00,0,-999,0,0.00
2013-9-27,90,80,75,-100,-100,-100,0,0,100,0.00,40.00,0,-999,0,0.00
2013-9-28,91,80,73,-100,-100,-100,0,0,100,0.00,40.00,0,-999,0,0.00
2013-9-29,74,71,65,-100,-100,-100,0,0,100,0.00,40.00,0,-999,0,0.00
2013-9-30,88,74,62,-100,-100,-100,0,0,100,0.00,40.00,0,-999,0,0.00
2013-10-1,82,81,80,-100,-100,-100,0,0,100,0.00,40.00,0,-999,0,0.00
2013-10-2,89,82,75,-100,-100,-100,0,0,100,0.00,40.00,0,-999,0,0.00
2013-10-3,89,81,76,-100,-100,-100,0,0,100,0.00,40.00,0,-999,0,0.00
2013-10-4,89,82,73,-100,-100,-100,0,0,100,0.00,40.00,0,-999,0,0.00
2013-10-5,87,75,62,-100,-100,-100,0,0,100,0.00,40.00,0,-999,0,0.00
2013-10-6,78,62,51,-100,-100,-100,0,0,100,0.00,40.00,0,-999,0,0.00
2013-10-7,83,66,50,-100,-100,-100,0,0,100,0.00,40.00,0,-999,0,0.00
2013-10-8,83,65,51,-100,-100,-100,0,0,100,0.00,40.00,0,-999,0,0.00
2013-10-9,83,68,54,-100,-100,-100,0,0,100,0.00,40.00,0,-999,0,0.00
2013-10-10,86,72,60,-100,-100,-100,0,0,100,0.00,40.00,0,-999,0,0.00
2013-10-11,88,79,71,-100,-100,-100,0,0,100,0.00,40.00,0,-999,0,0.00
2013-10-12,89,81,76,-100,-100,-100,0,0,100,0.00,40.00,0,-999,0,0.00
2013-10-13,78,73,66,-100,-100,-100,0,0,100,0.00,40.00,0,-999,0,0.00
2013-10-14,81,75,72,-100,-100,-100,0,0,100,0.00,40.00,0,-999,0,0.00
2013-10-15,83,75,63,-100,-100,-100,0,0,100,0.00,40.00,0,-999,0,0.00
2013-10-16,62,57,53,-100,-100,-100,0,0,100,0.00,40.00,0,-999,0,0.00
2013-10-17,73,61,51,-100,-100,-100,0,0,100,0.00,40.00,0,-999,0,0.00
2013-10-18,71,64,54,-100,-100,-100,0,0,100,0.00,40.00,0,-999,0,0.00
2013-10-19,66,58,50,-100,-100,-100,0,0,100,0.00,40.00,0,-999,0,0.00
2013-10-20,73,59,43,-100,-100,-100,0,0,100,0.00,40.00,0,-999,0,0.00
2013-10-21,79,68,57,-100,-100,-100,0,0,100,0.00,40.00,0,-999,0,0.00
2013-10-22,74,62,51,-100,-100,-100,0,0,100,0.00,40.00,0,-999,0,0.00
2013-10-23,80,62,47,-100,-100,-100,0,0,100,0.00,40.00,0,-999,0,0.00
2013-10-24,80,62,47,-100,-100,-100,0,0,100,0.00,40.00,0,-999,0,0.00
2013-10-25,79,63,52,-100,-100,-100,0,0,100,0.00,40.00,0,-999,0,0.00
2013-10-26,80,71,64,-100,-100,-100,0,0,100,0.00,40.00,0,-999,0,0.00
2013-10-27,76,70,65,-100,-100,-100,0,0,100,0.00,40.00,0,-999,0,0.00
2013-10-28,82,72,66,-100,-100,-100,0,0,100,0.00,40.00,0,-999,0,0.00
2013-10-29,83,74,69,-100,-100,-100,0,0,100,0.00,40.00,0,-999,0,0.00
2013-10-30,83,77,73,-100,-100,-100,0,0,100,0.00,40.00,0,-999,0,0.00
2013-10-31,80,69,55,-100,-100,-100,0,0,100,0.00,40.00,0,-999,0,0.00
2013-11-1,83,65,49,-100,-100,-100,0,0,100,0.00,40.00,0,-999,0,0.00
2013-11-2,73,62,48,-100,-100,-100,0,0,100,0.00,40.00,0,-999,0,0.00
2013-11-3,71,58,43,-100,-100,-100,0,0,100,0.00,40.00,0,-999,0,0.00
2013-11-4,69,63,58,-100,-100,-100,0,0,100,0.00,40.00,0,-999,0,0.00
2013-11-5,80,70,65,-100,-100,-100,0,0,100,0.00,40.00,0,-999,0,0.00
2013-11-6,73,62,53,-100,-100,-100,0,0,100,0.00,40.00,0,-999,0,0.00
2013-11-7,61,54,45,-100,-100,-100,0,0,100,0.00,40.00,0,-999,0,0.00
2013-11-8,65,56,49,-100,-100,-100,0,0,100,0.00,40.00,0,-999,0,0.00
2013-11-9,69,60,54,-100,-100,-100,0,0,100,0.00,40.00,0,-999,0,0.00
2013-11-10,65,63,61,-100,-100,-100,0,0,100,0.00,40.00,0,-999,0,0.00
2013-11-11,76,64,52,-100,-100,-100,0,0,100,0.00,40.00,0,-999,0,0.00
2013-11-12,59,54,44,-100,-100,-100,0,0,100,0.00,40.00,0,-999,0,0.00
2013-11-13,56,42,33,-100,-100,-100,0,0,100,0.00,40.00,0,-999,0,0.00
2013-11-14,62,46,29,-100,-100,-100,0,0,100,0.00,40.00,0,-999,0,0.00
2013-11-15,77,65,45,-100,-100,-100,0,0,100,0.00,40.00,0,-999,0,0.00
2013-11-16,79,68,61,-100,-100,-100,0,0,100,0.00,40.00,0,-999,0,0.00
2013-11-17,87,76,66,-100,-100,-100,0,0,100,0.00,40.00,0,-999,0,0.00
2013-11-18,75,68,62,-100,-100,-100,0,0,100,0.00,40.00,0,-999,0,0.00
2013-11-19,71,63,54,-100,-100,-100,0,0,100,0.00,40.00,0,-999,0,0.00
2013-11-20,70,64,58,-100,-100,-100,0,0,100,0.00,40.00,0,-999,0,0.00
2013-11-21,80,72,68,-100,-100,-100,0,0,100,0.00,40.00,0,-999,0,0.00
2013-11-22,73,45,34,-100,-100,-100,0,0,100,0.00,40.00,0,-999,0,0.00
2013-11-23,40,38,35,-100,-100,-100,0,0,100,0.00,40.00,0,-999,0,0.00
2013-11-24,41,38,32,-100,-100,-100,0,0,100,0.00,40.00,0,-999,0,0.00
2013-11-25,40,36,32,-100,-100,-100,0,0,100,0.00,40.00,0,-999,0,0.00
2013-11-26,51,42,36,-100,-100,-100,0,0,100,0.00,40.00,0,-999,0,0.00
2013-11-27,51,40,32,-100,-100,-100,0,0,100,0.00,40.00,0,-999,0,0.00
2013-11-28,55,42,30,-100,-100,-100,0,0,100,0.00,40.00,0,-999,0,0.00
2013-11-29,62,48,34,-100,-100,-100,0,0,100,0.00,40.00,0,-999,0,0.00
2013-11-30,67,55,49,-100,-100,-100,0,0,100,0.00,40.00,0,-999,0,0.00
2013-12-1,69,60,57,-100,-100,-100,0,0,100,0.00,40.00,0,-999,0,0.00
2013-12-2,79,64,55,-100,-100,-100,0,0,100,0.00,40.00,0,-999,0,0.00
2013-12-3,84,67,53,-100,-100,-100,0,0,100,0.00,40.00,0,-999,0,0.00
2013-12-4,74,62,52,-100,-100,-100,0,0,100,0.00,40.00,0,-999,0,0.00
2013-12-5,66,49,32,-100,-100,-100,0,0,100,0.00,40.00,0,-999,0,0.00
2013-12-6,37,32,29,-100,-100,-100,0,0,100,0.00,40.00,0,-999,0,0.00
2013-12-7,31,28,25,-100,-100,-100,0,0,100,0.00,40.00,0,-999,0,0.00
2013-12-8,49,37,27,-100,-100,-100,0,0,100,0.00,40.00,0,-999,0,0.00
2013-12-9,40,38,33,-100,-100,-100,0,0,100,0.00,40.00,0,-999,0,0.00
2013-12-10,47,35,29,-100,-100,-100,0,0,100,0.00,40.00,0,-999,0,0.00
2013-12-11,60,45,26,-100,-100,-100,0,0,100,0.00,40.00,0,-999,0,0.00
2013-12-12,51,42,34,-100,-100,-100,0,0,100,0.00,40.00,0,-999,0,0.00
2013-12-13,51,47,43,-100,-100,-100,0,0,100,0.00,40.00,0,-999,0,0.00
2013-12-14,54,47,42,-100,-100,-100,0,0,100,0.00,40.00,0,-999,0,0.00
2013-12-15,63,46,31,-100,-100,-100,0,0,100,0.00,40.00,0,-999,0,0.00
2013-12-16,65,46,29,-100,-100,-100,0,0,100,0.00,40.00,0,-999,0,0.00
2013-12-17,71,47,36,-100,-100,-100,0,0,100,0.00,40.00,0,-999,0,0.00
2013-12-18,69,50,37,-100,-100,-100,0,0,100,0.00,40.00,0,-999,0,0.00
2013-12-19,73,63,52,-100,-100,-100,0,0,100,0.00,40.00,0,-999,0,0.00
2013-12-20,73,67,63,-100,-100,-100,0,0,100,0.00,40.00,0,-999,0,0.00
2013-12-21,70,60,47,-100,-100,-100,0,0,100,0.00,40.00,0,-999,0,0.00
2013-12-22,56,47,38,-100,-100,-100,0,0,100,0.00,40.00,0,-999,0,0.00
2013-12-23,58,41,30,-100,-100,-100,0,0,100,0.00,40.00,0,-999,0,0.00
2013-12-24,59,38,28,-100,-100,-100,0,0,100,0.00,40.00,0,-999,0,0.00
2013-12-25,54,47,36,-100,-100,-100,0,0,100,0.00,40.00,0,-999,0,0.00
2013-12-26,53,47,42,-100,-100,-100,0,0,100,0.00,40.00,0,-999,0,0.00
2013-12-27,55,48,43,-100,-100,-100,0,0,100,0.00,40.00,0,-999,0,0.00
2013-12-28,56,50,41,-100,-100,-100,0,0,100,0.00,40.00,0,-999,0,0.00
2013-12-29,63,48,36,-100,-100,-100,0,0,100,0.00,40.00,0,-999,0,0.00
2013-12-30,43,37,33,-100,-100,-100,0,0,100,0.00,40.00,0,-999,0,0.00
2013-12-31,50,40,35,-100,-100,-100,0,0,100,0.00,40.00,0,-999,0,0.00
2014-1-1,58,44,34,-100,-100,-100,0,0,100,0.00,40.00,0,-999,0,0.00
2014-1-2,52,41,29,-100,-100,-100,0,0,100,0.00,40.00,0,-999,0,0.00